Time;durP1;ratioP1;P1;durP2;ratioP2;P2;SDS_P1;SDS_P2;PMS_P1;PMS_P2;Temp;Humidity;BMP_temperature;BMP_pressure;BME280_temperature;BME280_humidity;BME280_pressure;Samples;Min_cycle;Max_cycle;Signal;HPM_P1;HPM_P2
2022/01/20 00:03:32;;;;;;;4.78;2.67;;;;;;;;;;4995381;28;20030;-81
2022/01/20 00:27:52;;;;;;;3.63;2.05;;;;;;;;;;4997570;28;20049;-81
2022/01/20 00:35:28;;;;;;;6.03;1.90;;;;;;;;;;4996503;28;20026;-80
2022/01/20 00:37:54;;;;;;;4.47;1.80;;;;;;;;;;4997698;28;20470;-81
2022/01/20 00:40:21;;;;;;;6.60;1.95;;;;;;;;;;4993197;28;20038;-80
2022/01/20 00:42:47;;;;;;;5.32;2.22;;;;;;;;;;4997778;28;20018;-80
2022/01/20 00:45:15;;;;;;;9.60;2.40;;;;;;;;;;4993453;28;20041;-80
2022/01/20 00:47:41;;;;;;;4.80;2.42;;;;;;;;;;4996805;28;20134;-80
2022/01/20 00:50:08;;;;;;;4.93;2.45;;;;;;;;;;4999454;28;20030;-80
2022/01/20 00:52:35;;;;;;;5.40;2.33;;;;;;;;;;4997140;28;20022;-81
2022/01/20 00:55:01;;;;;;;5.32;2.35;;;;;;;;;;4996485;28;20030;-82
2022/01/20 00:57:27;;;;;;;9.75;2.72;;;;;;;;;;4996358;28;20609;-80
2022/01/20 00:59:53;;;;;;;5.20;3.00;;;;;;;;;;4998027;28;20037;-80
2022/01/20 01:02:21;;;;;;;6.30;3.58;;;;;;;;;;4995034;28;20088;-81
2022/01/20 01:04:47;;;;;;;4.10;2.72;;;;;;;;;;4999618;28;20471;-80
2022/01/20 01:09:46;;;;;;;6.45;3.08;;;;;;;;;;4996216;28;20034;-81
2022/01/20 01:12:18;;;;;;;5.68;2.53;;;;;;;;;;4997935;28;20022;-81
2022/01/20 01:14:48;;;;;;;5.72;2.85;;;;;;;;;;4991886;28;20137;-81
2022/01/20 01:20:11;;;;;;;5.32;3.50;;;;;;;;;;4998569;28;20450;-82
2022/01/20 01:22:37;;;;;;;5.43;3.00;;;;;;;;;;4994862;28;20406;-81
2022/01/20 01:25:03;;;;;;;8.55;3.00;;;;;;;;;;4991628;28;20514;-81
2022/01/20 01:27:34;;;;;;;5.05;2.30;;;;;;;;;;4998660;28;20038;-81
2022/01/20 01:30:22;;;;;;;4.28;2.00;;;;;;;;;;4995040;28;20117;-81
2022/01/20 01:32:54;;;;;;;4.13;2.10;;;;;;;;;;4994926;28;20040;-81
2022/01/20 01:35:22;;;;;;;4.22;2.13;;;;;;;;;;4996042;28;20033;-81
2022/01/20 01:40:20;;;;;;;4.05;2.20;;;;;;;;;;4996583;28;20045;-81
2022/01/20 01:42:49;;;;;;;4.05;2.13;;;;;;;;;;4995223;28;20590;-81
2022/01/20 01:45:21;;;;;;;5.22;1.92;;;;;;;;;;4992956;28;20034;-80
2022/01/20 01:47:48;;;;;;;8.15;1.73;;;;;;;;;;4993457;28;20042;-82
2022/01/20 01:50:15;;;;;;;5.25;1.65;;;;;;;;;;4995695;28;20062;-81
2022/01/20 01:52:41;;;;;;;4.45;2.20;;;;;;;;;;4996146;28;20034;-81
2022/01/20 01:55:07;;;;;;;6.40;1.95;;;;;;;;;;4995111;28;20655;-82
2022/01/20 01:57:34;;;;;;;5.63;1.80;;;;;;;;;;4995779;28;20104;-82
2022/01/20 02:00:00;;;;;;;6.07;1.92;;;;;;;;;;4994840;28;20037;-81
2022/01/20 02:02:27;;;;;;;3.35;1.83;;;;;;;;;;4997868;28;20022;-81
2022/01/20 02:04:53;;;;;;;5.25;2.13;;;;;;;;;;4997395;28;20026;-81
2022/01/20 02:18:12;;;;;;;2.85;1.70;;;;;;;;;;4995267;28;20041;-81
2022/01/20 02:20:38;;;;;;;3.90;1.67;;;;;;;;;;4994728;28;20022;-81
2022/01/20 02:23:05;;;;;;;4.00;1.70;;;;;;;;;;4998072;28;20674;-75
2022/01/20 02:25:33;;;;;;;2.40;1.70;;;;;;;;;;4989362;28;20510;-82
2022/01/20 02:28:01;;;;;;;4.97;1.92;;;;;;;;;;4991044;28;20457;-82
2022/01/20 02:30:28;;;;;;;3.08;1.80;;;;;;;;;;4990508;28;20124;-81
2022/01/20 02:32:58;;;;;;;3.92;2.08;;;;;;;;;;4988105;28;20030;-81
2022/01/20 02:35:25;;;;;;;3.22;2.00;;;;;;;;;;4989942;28;20094;-81
2022/01/20 02:38:04;;;;;;;5.35;1.95;;;;;;;;;;4992364;28;20034;-83
2022/01/20 02:45:48;;;;;;;2.72;1.88;;;;;;;;;;4985473;28;20036;-81
2022/01/20 02:48:14;;;;;;;3.25;1.92;;;;;;;;;;4991875;28;20046;-81
2022/01/20 02:50:40;;;;;;;5.15;2.00;;;;;;;;;;4988091;28;20252;-81
2022/01/20 02:53:06;;;;;;;3.70;1.98;;;;;;;;;;4990042;28;20030;-82
2022/01/20 02:55:33;;;;;;;6.32;2.53;;;;;;;;;;4989561;28;20018;-82
2022/01/20 02:57:59;;;;;;;7.05;2.35;;;;;;;;;;4985672;28;20018;-83
2022/01/20 03:00:25;;;;;;;4.18;2.35;;;;;;;;;;4991909;28;20026;-87
2022/01/20 03:02:52;;;;;;;3.40;2.15;;;;;;;;;;4992845;28;20026;-83
2022/01/20 03:05:18;;;;;;;5.70;2.40;;;;;;;;;;4997485;28;20553;-88
2022/01/20 03:07:45;;;;;;;8.73;2.40;;;;;;;;;;4995510;28;20045;-81
2022/01/20 03:10:12;;;;;;;5.03;2.00;;;;;;;;;;4992211;28;20042;-81
2022/01/20 03:12:38;;;;;;;6.05;2.40;;;;;;;;;;4989263;28;20019;-82
2022/01/20 03:15:04;;;;;;;4.00;2.40;;;;;;;;;;4985927;28;20031;-82
2022/01/20 03:17:32;;;;;;;5.45;2.20;;;;;;;;;;4993448;28;20095;-83
2022/01/20 03:19:58;;;;;;;6.30;2.25;;;;;;;;;;4995820;28;20026;-82
2022/01/20 03:22:24;;;;;;;4.97;2.55;;;;;;;;;;4991216;28;20030;-83
2022/01/20 03:24:51;;;;;;;4.20;2.42;;;;;;;;;;4993527;28;20170;-82
2022/01/20 03:27:17;;;;;;;3.65;2.00;;;;;;;;;;4998129;28;20030;-83
2022/01/20 03:29:44;;;;;;;5.05;2.47;;;;;;;;;;4997993;28;20044;-81
2022/01/20 03:32:10;;;;;;;8.07;2.05;;;;;;;;;;4996527;28;20037;-82
2022/01/20 03:34:36;;;;;;;4.82;2.35;;;;;;;;;;4994920;28;20087;-81
2022/01/20 03:37:04;;;;;;;2.58;2.03;;;;;;;;;;4998052;28;20022;-81
2022/01/20 03:39:30;;;;;;;4.78;2.50;;;;;;;;;;4995238;28;20062;-81
2022/01/20 03:41:56;;;;;;;5.10;2.97;;;;;;;;;;4993979;28;20026;-81
2022/01/20 03:44:23;;;;;;;4.40;2.17;;;;;;;;;;4997148;28;20023;-80
2022/01/20 03:46:49;;;;;;;5.47;2.80;;;;;;;;;;4994230;28;20554;-81
2022/01/20 03:49:27;;;;;;;6.50;3.17;;;;;;;;;;4995918;28;20050;-81
2022/01/20 03:51:54;;;;;;;7.28;3.13;;;;;;;;;;4995256;28;20037;-81
2022/01/20 03:54:20;;;;;;;8.63;2.75;;;;;;;;;;4998948;28;20112;-81
2022/01/20 03:56:47;;;;;;;6.30;2.15;;;;;;;;;;4997281;28;20026;-82
2022/01/20 03:59:13;;;;;;;4.22;2.60;;;;;;;;;;5001788;28;20381;-82
2022/01/20 04:01:39;;;;;;;4.78;2.17;;;;;;;;;;4998297;28;20180;-81
2022/01/20 04:04:05;;;;;;;5.32;2.63;;;;;;;;;;4994320;28;20376;-81
2022/01/20 04:06:31;;;;;;;4.95;1.90;;;;;;;;;;4984239;28;20520;-81
2022/01/20 04:08:57;;;;;;;4.28;2.20;;;;;;;;;;4985228;28;20038;-80
2022/01/20 04:11:25;;;;;;;4.00;1.92;;;;;;;;;;4985565;28;20463;-82
2022/01/20 04:13:51;;;;;;;4.40;1.92;;;;;;;;;;4988327;28;20041;-82
2022/01/20 04:16:23;;;;;;;4.30;1.95;;;;;;;;;;4985555;28;20046;-82
2022/01/20 04:18:57;;;;;;;3.45;1.70;;;;;;;;;;4984038;28;20093;-81
2022/01/20 04:21:25;;;;;;;4.72;1.92;;;;;;;;;;4985679;28;20625;-84
2022/01/20 04:23:52;;;;;;;6.30;1.95;;;;;;;;;;4985899;28;20030;-82
2022/01/20 04:26:19;;;;;;;7.18;1.90;;;;;;;;;;4984153;28;20057;-81
2022/01/20 04:28:45;;;;;;;5.53;1.95;;;;;;;;;;4985365;28;20029;-81
2022/01/20 04:31:12;;;;;;;7.18;2.10;;;;;;;;;;4985664;28;20171;-82
2022/01/20 04:33:38;;;;;;;5.78;1.65;;;;;;;;;;4985376;28;20034;-81
2022/01/20 04:36:06;;;;;;;4.68;2.00;;;;;;;;;;5003876;28;20071;-83
2022/01/20 04:38:32;;;;;;;2.33;1.67;;;;;;;;;;5004959;28;20101;-82
2022/01/20 04:40:59;;;;;;;5.47;3.13;;;;;;;;;;5005068;28;20030;-82
2022/01/20 04:43:26;;;;;;;4.43;2.45;;;;;;;;;;4994430;28;20031;-84
2022/01/20 04:46:07;;;;;;;2.92;2.20;;;;;;;;;;4983813;28;20034;-88
2022/01/20 04:49:02;;;;;;;4.88;2.00;;;;;;;;;;4999537;28;20046;-83
2022/01/20 04:57:06;;;;;;;4.18;1.88;;;;;;;;;;4984589;28;20101;-82
2022/01/20 04:59:32;;;;;;;3.53;2.08;;;;;;;;;;4989804;28;20026;-82
2022/01/20 05:01:59;;;;;;;3.72;2.00;;;;;;;;;;5001390;28;20030;-89
2022/01/20 05:04:26;;;;;;;5.72;2.65;;;;;;;;;;4984119;28;20030;-82
2022/01/20 05:06:55;;;;;;;6.25;2.35;;;;;;;;;;4983610;28;20545;-84
2022/01/20 05:09:22;;;;;;;5.35;2.30;;;;;;;;;;4982825;28;20153;-81
2022/01/20 05:12:11;;;;;;;4.95;2.58;;;;;;;;;;4982164;28;20030;-83
2022/01/20 05:14:37;;;;;;;5.85;2.83;;;;;;;;;;4983419;28;20034;-85
2022/01/20 05:17:03;;;;;;;5.45;3.08;;;;;;;;;;4983499;28;20060;-84
2022/01/20 05:19:31;;;;;;;5.00;3.03;;;;;;;;;;4982740;28;20030;-82
2022/01/20 05:21:57;;;;;;;4.82;2.95;;;;;;;;;;4981896;28;20038;-81
2022/01/20 05:24:23;;;;;;;5.32;3.42;;;;;;;;;;4982951;28;20543;-82
2022/01/20 05:26:50;;;;;;;7.00;3.10;;;;;;;;;;4982697;28;20080;-84
2022/01/20 05:29:17;;;;;;;7.85;3.75;;;;;;;;;;4982679;28;20034;-83
2022/01/20 05:31:43;;;;;;;6.93;4.43;;;;;;;;;;4982438;28;20117;-82
2022/01/20 05:34:09;;;;;;;10.70;4.47;;;;;;;;;;4999236;28;20037;-83
2022/01/20 05:36:35;;;;;;;5.70;3.13;;;;;;;;;;4998413;28;20478;-83
2022/01/20 05:39:01;;;;;;;7.70;3.47;;;;;;;;;;4982337;28;20033;-84
2022/01/20 05:41:28;;;;;;;8.70;3.20;;;;;;;;;;4982005;28;20018;-81
2022/01/20 05:43:54;;;;;;;7.28;3.53;;;;;;;;;;4982765;28;20030;-83
2022/01/20 05:46:24;;;;;;;8.48;3.05;;;;;;;;;;4981994;28;20040;-80
2022/01/20 05:48:50;;;;;;;5.72;3.35;;;;;;;;;;4981802;28;20086;-83
2022/01/20 05:51:16;;;;;;;6.45;3.05;;;;;;;;;;4980905;28;20029;-83
2022/01/20 05:53:43;;;;;;;4.70;3.10;;;;;;;;;;4982596;28;20740;-82
2022/01/20 05:56:09;;;;;;;3.60;2.67;;;;;;;;;;4982370;28;20030;-81
2022/01/20 05:58:36;;;;;;;6.03;2.50;;;;;;;;;;4981314;28;20111;-81
2022/01/20 06:01:07;;;;;;;5.07;2.50;;;;;;;;;;4979306;28;20034;-82
2022/01/20 06:03:36;;;;;;;5.85;2.72;;;;;;;;;;4982312;28;20058;-82
2022/01/20 06:06:09;;;;;;;7.75;2.88;;;;;;;;;;4981126;28;20022;-83
2022/01/20 06:08:37;;;;;;;4.68;2.80;;;;;;;;;;4981164;28;20497;-81
2022/01/20 06:11:03;;;;;;;5.38;2.28;;;;;;;;;;4982152;28;20475;-82
2022/01/20 06:13:30;;;;;;;4.30;2.30;;;;;;;;;;4980801;28;20121;-82
2022/01/20 06:15:56;;;;;;;7.05;2.50;;;;;;;;;;4981711;28;20030;-81
2022/01/20 06:18:22;;;;;;;5.72;2.95;;;;;;;;;;4981252;28;20050;-81
2022/01/20 06:20:49;;;;;;;5.43;2.63;;;;;;;;;;4981100;28;20034;-88
2022/01/20 06:23:15;;;;;;;6.90;2.72;;;;;;;;;;4981720;28;20033;-82
2022/01/20 06:25:41;;;;;;;4.18;2.40;;;;;;;;;;4981567;28;20555;-85
2022/01/20 06:28:08;;;;;;;8.55;2.58;;;;;;;;;;4981921;28;20038;-82
2022/01/20 06:30:34;;;;;;;5.10;2.40;;;;;;;;;;4981816;28;20030;-83
2022/01/20 06:33:01;;;;;;;4.28;3.03;;;;;;;;;;4979092;28;20068;-81
2022/01/20 06:35:27;;;;;;;4.47;2.47;;;;;;;;;;4982752;28;20030;-81
2022/01/20 06:37:53;;;;;;;5.32;2.38;;;;;;;;;;4998817;28;20026;-83
2022/01/20 06:40:20;;;;;;;4.78;3.20;;;;;;;;;;4981683;28;20038;-81
2022/01/20 06:42:46;;;;;;;7.32;2.63;;;;;;;;;;4981657;28;20582;-77
2022/01/20 06:45:13;;;;;;;4.95;2.85;;;;;;;;;;4982593;28;20036;-81
2022/01/20 06:47:39;;;;;;;6.60;3.53;;;;;;;;;;4983003;28;20029;-82
2022/01/20 06:50:08;;;;;;;8.48;3.78;;;;;;;;;;4982740;28;20034;-78
2022/01/20 06:52:34;;;;;;;6.45;3.70;;;;;;;;;;4980384;28;20121;-78
2022/01/20 06:55:05;;;;;;;9.18;5.35;;;;;;;;;;4983144;28;20073;-82
2022/01/20 06:57:31;;;;;;;11.43;5.82;;;;;;;;;;4982684;28;20096;-84
2022/01/20 06:59:57;;;;;;;7.90;5.20;;;;;;;;;;4982973;28;20057;-79
2022/01/20 07:02:24;;;;;;;8.88;5.53;;;;;;;;;;4982592;28;20521;-85
2022/01/20 07:04:51;;;;;;;10.30;5.38;;;;;;;;;;4981422;28;20019;-79
2022/01/20 07:07:17;;;;;;;9.05;4.80;;;;;;;;;;4982278;28;20015;-79
2022/01/20 07:09:44;;;;;;;7.20;3.75;;;;;;;;;;4987623;28;20124;-79
2022/01/20 07:12:10;;;;;;;15.70;7.80;;;;;;;;;;4984376;28;20101;-80
2022/01/20 07:14:36;;;;;;;7.43;5.05;;;;;;;;;;4982720;28;20030;-81
2022/01/20 07:17:03;;;;;;;7.22;4.95;;;;;;;;;;4988024;28;20173;-80
2022/01/20 07:19:29;;;;;;;9.07;4.60;;;;;;;;;;4987103;28;20145;-79
2022/01/20 07:21:55;;;;;;;8.52;5.35;;;;;;;;;;4988958;28;20038;-79
2022/01/20 07:24:21;;;;;;;15.13;7.53;;;;;;;;;;4990482;28;20022;-79
2022/01/20 07:26:48;;;;;;;8.55;5.10;;;;;;;;;;4988687;28;20503;-79
2022/01/20 07:29:14;;;;;;;12.23;6.13;;;;;;;;;;4988047;28;20072;-79
2022/01/20 07:31:41;;;;;;;16.27;9.10;;;;;;;;;;4988823;28;20826;-79
2022/01/20 07:34:07;;;;;;;13.20;7.95;;;;;;;;;;4988251;28;20551;-79
2022/01/20 07:36:33;;;;;;;12.20;7.57;;;;;;;;;;4987405;28;20413;-79
2022/01/20 07:38:59;;;;;;;10.77;5.85;;;;;;;;;;4988616;28;20105;-83
2022/01/20 07:41:25;;;;;;;10.45;4.18;;;;;;;;;;4982554;28;20032;-78
2022/01/20 07:43:51;;;;;;;10.63;4.80;;;;;;;;;;4982476;28;20034;-78
2022/01/20 07:46:18;;;;;;;10.32;4.93;;;;;;;;;;4982320;28;20029;-79
2022/01/20 07:48:44;;;;;;;59.88;11.18;;;;;;;;;;4982658;28;20046;-82
2022/01/20 07:51:10;;;;;;;12.05;6.15;;;;;;;;;;4989439;28;20030;-80
2022/01/20 07:53:37;;;;;;;10.27;5.05;;;;;;;;;;4992343;28;20097;-81
2022/01/20 07:56:05;;;;;;;11.95;6.28;;;;;;;;;;4991124;28;20026;-80
2022/01/20 07:58:31;;;;;;;11.15;6.75;;;;;;;;;;4991103;28;20014;-80
2022/01/20 08:00:57;;;;;;;11.90;7.20;;;;;;;;;;4992682;28;20033;-81
2022/01/20 08:03:24;;;;;;;12.88;5.97;;;;;;;;;;4989752;28;20467;-80
2022/01/20 08:05:50;;;;;;;12.05;6.45;;;;;;;;;;4991253;28;20022;-81
2022/01/20 08:08:16;;;;;;;16.38;8.60;;;;;;;;;;4993018;28;20560;-80
2022/01/20 08:10:42;;;;;;;12.05;6.60;;;;;;;;;;4994551;28;20382;-82
2022/01/20 08:13:08;;;;;;;13.38;7.80;;;;;;;;;;4994748;28;20014;-80
2022/01/20 08:15:35;;;;;;;14.73;7.30;;;;;;;;;;4996763;28;20018;-84
2022/01/20 08:18:01;;;;;;;16.60;7.45;;;;;;;;;;4991444;28;20034;-78
2022/01/20 08:20:27;;;;;;;48.50;6.93;;;;;;;;;;4985799;28;20030;-84
2022/01/20 08:22:53;;;;;;;8.80;6.35;;;;;;;;;;4985436;28;20029;-79
2022/01/20 08:25:20;;;;;;;13.88;6.47;;;;;;;;;;4990378;28;20022;-79
2022/01/20 08:27:47;;;;;;;12.77;8.43;;;;;;;;;;4985608;28;20505;-78
2022/01/20 08:30:15;;;;;;;19.73;14.05;;;;;;;;;;4984312;28;20130;-78
2022/01/20 08:32:42;;;;;;;24.40;13.98;;;;;;;;;;4984879;28;20109;-78
2022/01/20 08:35:09;;;;;;;17.70;12.88;;;;;;;;;;4983859;28;20022;-78
2022/01/20 08:37:40;;;;;;;12.90;7.97;;;;;;;;;;4984874;28;20046;-78
2022/01/20 08:40:14;;;;;;;15.48;7.88;;;;;;;;;;4983441;28;20495;-79
2022/01/20 08:42:45;;;;;;;15.95;9.20;;;;;;;;;;4985005;28;20030;-79
2022/01/20 08:45:13;;;;;;;14.98;10.68;;;;;;;;;;4984601;28;20037;-78
2022/01/20 08:47:39;;;;;;;18.48;11.25;;;;;;;;;;4984711;28;20513;-79
2022/01/20 08:50:05;;;;;;;22.92;9.55;;;;;;;;;;4984880;28;20038;-83
2022/01/20 08:52:32;;;;;;;11.93;7.60;;;;;;;;;;4982316;28;20033;-82
2022/01/20 08:54:58;;;;;;;11.98;7.40;;;;;;;;;;4988020;28;20049;-83
2022/01/20 08:57:28;;;;;;;11.85;6.03;;;;;;;;;;4984974;28;20202;-83
2022/01/20 09:00:26;;;;;;;8.20;5.35;;;;;;;;;;4986735;28;20022;-81
2022/01/20 09:02:52;;;;;;;8.00;4.90;;;;;;;;;;4988434;28;20731;-79
2022/01/20 09:05:18;;;;;;;7.93;5.07;;;;;;;;;;4998736;28;20026;-84
2022/01/20 09:07:45;;;;;;;7.03;4.07;;;;;;;;;;5000586;28;20552;-79
2022/01/20 09:10:18;;;;;;;8.48;3.65;;;;;;;;;;5000628;28;20304;-81
2022/01/20 09:15:38;;;;;;;6.93;3.72;;;;;;;;;;4998571;28;20073;-85
2022/01/20 09:18:07;;;;;;;6.15;3.10;;;;;;;;;;4980581;28;20109;-86
2022/01/20 09:20:39;;;;;;;5.13;3.05;;;;;;;;;;4981487;28;20130;-81
2022/01/20 09:23:06;;;;;;;6.90;2.92;;;;;;;;;;4981428;28;20030;-81
2022/01/20 09:25:32;;;;;;;5.43;2.50;;;;;;;;;;4981441;28;20553;-80
2022/01/20 09:28:00;;;;;;;6.53;2.90;;;;;;;;;;4980270;28;20644;-82
2022/01/20 09:30:26;;;;;;;4.95;3.15;;;;;;;;;;4984644;28;20034;-81
2022/01/20 09:32:59;;;;;;;4.65;3.03;;;;;;;;;;4983221;28;20040;-86
2022/01/20 09:35:41;;;;;;;6.25;3.78;;;;;;;;;;4983270;28;20088;-82
2022/01/20 09:38:08;;;;;;;6.22;3.50;;;;;;;;;;4984563;28;20026;-80
2022/01/20 09:40:36;;;;;;;7.30;3.63;;;;;;;;;;4980137;28;20030;-80
2022/01/20 09:43:03;;;;;;;6.00;3.10;;;;;;;;;;4977781;28;20499;-80
2022/01/20 09:45:30;;;;;;;4.68;2.63;;;;;;;;;;4982792;28;20044;-80
2022/01/20 09:47:56;;;;;;;10.32;3.20;;;;;;;;;;4983107;28;20490;-80
2022/01/20 09:50:23;;;;;;;9.85;3.20;;;;;;;;;;4982523;28;20039;-82
2022/01/20 09:52:50;;;;;;;7.55;3.45;;;;;;;;;;4982681;28;20030;-84
2022/01/20 09:55:17;;;;;;;4.22;3.10;;;;;;;;;;4983287;28;20037;-79
2022/01/20 09:57:43;;;;;;;4.90;3.03;;;;;;;;;;4983999;28;20479;-81
2022/01/20 10:00:11;;;;;;;8.55;3.25;;;;;;;;;;4984216;28;20113;-80
2022/01/20 10:02:49;;;;;;;6.82;3.17;;;;;;;;;;4983701;28;20018;-86
2022/01/20 10:05:24;;;;;;;5.30;3.13;;;;;;;;;;4981067;28;20030;-80
2022/01/20 10:07:50;;;;;;;6.15;3.55;;;;;;;;;;4982480;28;20459;-80
2022/01/20 10:10:16;;;;;;;7.80;4.05;;;;;;;;;;4984640;28;20157;-81
2022/01/20 10:12:42;;;;;;;7.22;3.90;;;;;;;;;;4993382;28;20038;-80
2022/01/20 10:15:11;;;;;;;10.20;4.05;;;;;;;;;;4982104;28;20026;-80
2022/01/20 10:17:38;;;;;;;10.80;4.28;;;;;;;;;;4983335;28;20049;-78
2022/01/20 10:20:06;;;;;;;8.45;4.68;;;;;;;;;;4985736;28;20022;-78
2022/01/20 10:22:35;;;;;;;4.90;4.00;;;;;;;;;;5002020;28;20430;-79
2022/01/20 10:25:12;;;;;;;7.28;3.80;;;;;;;;;;5002377;28;20053;-82
2022/01/20 10:27:47;;;;;;;7.75;4.38;;;;;;;;;;5001392;28;20117;-80
2022/01/20 10:30:13;;;;;;;7.85;4.63;;;;;;;;;;5002579;28;20048;-80
2022/01/20 10:32:44;;;;;;;8.57;4.40;;;;;;;;;;5003391;28;20121;-81
2022/01/20 10:35:10;;;;;;;8.35;3.97;;;;;;;;;;5002834;28;20038;-80
2022/01/20 10:37:38;;;;;;;6.63;4.43;;;;;;;;;;5000508;28;20029;-81
2022/01/20 10:40:07;;;;;;;7.65;4.70;;;;;;;;;;4994952;28;20113;-81
2022/01/20 10:42:44;;;;;;;5.72;4.47;;;;;;;;;;4985693;28;20881;-82
2022/01/20 10:45:23;;;;;;;7.10;4.20;;;;;;;;;;4988889;28;20023;-78
2022/01/20 10:47:51;;;;;;;7.55;4.15;;;;;;;;;;4991454;28;20446;-80
2022/01/20 10:50:23;;;;;;;13.25;5.00;;;;;;;;;;4995983;28;20030;-80
2022/01/20 10:52:50;;;;;;;7.68;4.30;;;;;;;;;;5000598;28;20048;-80
2022/01/20 10:55:23;;;;;;;5.45;3.97;;;;;;;;;;5001709;28;20029;-80
2022/01/20 10:57:49;;;;;;;4.50;3.70;;;;;;;;;;5000312;28;20152;-80
2022/01/20 11:00:18;;;;;;;7.07;3.80;;;;;;;;;;4999901;28;20033;-80
2022/01/20 11:02:48;;;;;;;8.25;4.13;;;;;;;;;;5002441;28;20041;-80
2022/01/20 11:05:16;;;;;;;9.18;4.38;;;;;;;;;;5001934;28;20030;-80
2022/01/20 11:07:43;;;;;;;6.18;4.20;;;;;;;;;;5000382;28;20018;-80
2022/01/20 11:10:10;;;;;;;7.45;4.07;;;;;;;;;;5003022;28;20030;-80
2022/01/20 11:12:37;;;;;;;9.27;4.22;;;;;;;;;;5001675;28;20022;-80
2022/01/20 11:15:06;;;;;;;8.48;4.20;;;;;;;;;;5001638;28;20026;-80
2022/01/20 11:17:33;;;;;;;7.32;4.05;;;;;;;;;;5000069;28;20064;-81
2022/01/20 11:20:07;;;;;;;7.38;3.63;;;;;;;;;;5000323;28;20493;-84
2022/01/20 11:22:34;;;;;;;8.23;4.53;;;;;;;;;;5000739;28;20052;-80
2022/01/20 11:25:05;;;;;;;6.10;4.00;;;;;;;;;;5000551;28;20036;-82
2022/01/20 11:27:35;;;;;;;11.32;4.30;;;;;;;;;;4999829;28;20068;-81
2022/01/20 11:30:12;;;;;;;9.75;4.00;;;;;;;;;;5002364;28;20038;-78
2022/01/20 11:32:48;;;;;;;7.32;3.95;;;;;;;;;;5002462;28;20052;-83
2022/01/20 11:35:16;;;;;;;8.07;4.50;;;;;;;;;;5000418;28;20482;-84
2022/01/20 11:37:56;;;;;;;7.60;4.13;;;;;;;;;;5000967;28;20034;-84
2022/01/20 11:40:27;;;;;;;6.15;3.88;;;;;;;;;;5000870;28;20026;-83
2022/01/20 11:43:07;;;;;;;8.43;4.13;;;;;;;;;;5004120;28;20029;-81
2022/01/20 11:45:42;;;;;;;8.48;4.28;;;;;;;;;;5005139;28;20401;-81
2022/01/20 11:48:27;;;;;;;7.95;3.80;;;;;;;;;;5005478;28;20061;-86
2022/01/20 11:51:06;;;;;;;7.13;4.65;;;;;;;;;;5000301;28;20506;-81
2022/01/20 11:53:33;;;;;;;6.57;4.53;;;;;;;;;;4991543;28;20099;-83
2022/01/20 11:56:00;;;;;;;8.32;4.30;;;;;;;;;;4992298;28;20029;-81
2022/01/20 11:58:27;;;;;;;9.20;4.30;;;;;;;;;;4996548;28;20026;-82
2022/01/20 12:01:13;;;;;;;5.38;3.80;;;;;;;;;;4997565;28;20030;-82
2022/01/20 12:03:50;;;;;;;7.53;4.00;;;;;;;;;;5002982;28;20037;-81
2022/01/20 12:06:22;;;;;;;7.90;4.55;;;;;;;;;;4998198;28;20084;-82
2022/01/20 12:08:57;;;;;;;8.77;4.38;;;;;;;;;;4989164;28;20074;-86
2022/01/20 12:11:37;;;;;;;8.07;3.90;;;;;;;;;;4987998;28;20031;-81
2022/01/20 12:14:03;;;;;;;8.95;4.50;;;;;;;;;;4992895;28;20018;-80
2022/01/20 12:16:29;;;;;;;6.82;4.20;;;;;;;;;;4999440;28;20026;-83
2022/01/20 12:18:59;;;;;;;7.13;3.70;;;;;;;;;;4993092;28;20428;-84
2022/01/20 12:21:26;;;;;;;7.80;3.90;;;;;;;;;;4996258;28;20038;-81
2022/01/20 12:23:54;;;;;;;5.43;3.60;;;;;;;;;;4982670;28;20077;-78
2022/01/20 12:26:20;;;;;;;6.25;4.32;;;;;;;;;;4983275;28;20054;-85
2022/01/20 12:28:47;;;;;;;7.15;4.53;;;;;;;;;;4983664;28;20065;-81
2022/01/20 12:31:14;;;;;;;7.60;4.20;;;;;;;;;;4983663;28;20498;-82
2022/01/20 12:33:52;;;;;;;5.90;3.80;;;;;;;;;;4985479;28;20053;-80
2022/01/20 12:36:18;;;;;;;9.23;4.55;;;;;;;;;;4985787;28;20059;-80
2022/01/20 12:38:49;;;;;;;7.50;4.53;;;;;;;;;;4983346;28;20161;-81
2022/01/20 12:41:17;;;;;;;6.28;4.78;;;;;;;;;;4989601;28;20113;-82
2022/01/20 12:43:58;;;;;;;8.05;5.03;;;;;;;;;;4996744;28;20032;-86
2022/01/20 12:46:31;;;;;;;7.65;4.53;;;;;;;;;;4981111;28;20034;-83
2022/01/20 12:51:54;;;;;;;6.38;4.40;;;;;;;;;;4977942;28;20054;-80
2022/01/20 12:54:28;;;;;;;11.93;4.82;;;;;;;;;;4989901;28;20042;-85
2022/01/20 12:56:55;;;;;;;6.18;4.18;;;;;;;;;;4988937;28;20033;-86
2022/01/20 12:59:26;;;;;;;7.90;4.40;;;;;;;;;;5005572;28;20026;-81
2022/01/20 13:01:53;;;;;;;7.25;4.68;;;;;;;;;;4990871;28;20211;-81
2022/01/20 13:04:21;;;;;;;8.82;4.10;;;;;;;;;;5003211;28;20030;-84
2022/01/20 13:06:54;;;;;;;8.90;4.50;;;;;;;;;;4991978;28;20042;-92
2022/01/20 13:09:26;;;;;;;9.38;4.10;;;;;;;;;;4996061;28;20031;-90
2022/01/20 13:11:59;;;;;;;5.97;4.60;;;;;;;;;;4994739;28;20025;-83
2022/01/20 13:14:40;;;;;;;8.52;5.03;;;;;;;;;;4992721;28;20868;-83
2022/01/20 13:20:16;;;;;;;4.80;4.22;;;;;;;;;;5006508;28;20069;-82
2022/01/20 13:22:57;;;;;;;5.43;3.80;;;;;;;;;;4993542;28;20033;-85
2022/01/20 13:25:42;;;;;;;6.25;4.10;;;;;;;;;;4985416;28;20636;-93
2022/01/20 13:28:25;;;;;;;5.60;4.32;;;;;;;;;;4986679;28;20117;-85
2022/01/20 13:30:56;;;;;;;7.40;4.50;;;;;;;;;;4984639;28;20034;-93
2022/01/20 13:33:34;;;;;;;7.00;5.00;;;;;;;;;;4984083;28;20026;-87
2022/01/20 13:36:02;;;;;;;5.47;4.47;;;;;;;;;;4994620;28;20037;-87
2022/01/20 13:38:41;;;;;;;6.22;4.32;;;;;;;;;;4992804;28;20030;-78
2022/01/20 13:41:09;;;;;;;7.20;5.05;;;;;;;;;;4998870;28;20053;-84
2022/01/20 13:46:30;;;;;;;5.50;4.60;;;;;;;;;;4999533;28;20121;-79
2022/01/20 13:49:06;;;;;;;7.75;4.82;;;;;;;;;;4997402;28;20048;-84
2022/01/20 13:54:51;;;;;;;5.90;4.53;;;;;;;;;;4986628;28;20115;-87
2022/01/20 13:57:20;;;;;;;6.95;4.68;;;;;;;;;;4983262;28;20272;-87
2022/01/20 13:59:58;;;;;;;6.88;4.88;;;;;;;;;;4984145;28;20057;-80
2022/01/20 14:02:25;;;;;;;6.90;4.70;;;;;;;;;;4993695;28;20095;-81
2022/01/20 14:04:52;;;;;;;5.63;4.50;;;;;;;;;;4990631;28;20041;-81
2022/01/20 14:07:20;;;;;;;6.50;4.75;;;;;;;;;;4982644;28;20092;-86
2022/01/20 14:09:47;;;;;;;9.43;4.88;;;;;;;;;;4990125;28;20048;-80
2022/01/20 14:12:14;;;;;;;5.20;4.45;;;;;;;;;;4984984;28;20026;-81
2022/01/20 14:14:40;;;;;;;6.53;4.75;;;;;;;;;;4983034;28;20062;-79
2022/01/20 14:17:15;;;;;;;6.43;4.68;;;;;;;;;;4992812;28;20022;-80
2022/01/20 14:19:45;;;;;;;5.47;4.50;;;;;;;;;;4997867;28;20030;-78
2022/01/20 14:22:11;;;;;;;6.88;4.63;;;;;;;;;;4995934;28;20741;-80
2022/01/20 14:24:37;;;;;;;5.03;4.53;;;;;;;;;;4985921;28;20633;-79
2022/01/20 14:27:14;;;;;;;5.80;5.10;;;;;;;;;;4987822;28;20026;-81
2022/01/20 14:29:42;;;;;;;7.15;6.03;;;;;;;;;;4982662;28;20088;-79
2022/01/20 14:32:09;;;;;;;6.20;5.47;;;;;;;;;;4978979;28;20041;-84
2022/01/20 14:34:35;;;;;;;6.88;5.32;;;;;;;;;;4988507;28;20065;-78
2022/01/20 14:37:11;;;;;;;8.13;5.25;;;;;;;;;;4985874;28;20113;-81
2022/01/20 14:39:38;;;;;;;8.40;5.35;;;;;;;;;;4984732;28;20038;-78
2022/01/20 14:42:05;;;;;;;7.40;5.80;;;;;;;;;;4990065;28;20025;-79
2022/01/20 14:44:31;;;;;;;6.50;5.32;;;;;;;;;;4987364;28;20061;-78
2022/01/20 14:46:57;;;;;;;6.78;5.50;;;;;;;;;;4989006;28;20034;-77
2022/01/20 14:49:23;;;;;;;8.23;5.72;;;;;;;;;;4987523;28;20581;-79
2022/01/20 14:51:51;;;;;;;6.90;5.32;;;;;;;;;;4986262;28;20053;-80
2022/01/20 14:54:17;;;;;;;6.80;5.55;;;;;;;;;;4988671;28;20037;-78
2022/01/20 14:56:44;;;;;;;6.13;5.32;;;;;;;;;;4988183;28;20482;-79
2022/01/20 14:59:10;;;;;;;6.28;5.25;;;;;;;;;;4988631;28;20030;-78
2022/01/20 15:01:39;;;;;;;6.32;5.05;;;;;;;;;;4989573;28;20705;-79
2022/01/20 15:04:06;;;;;;;6.43;5.13;;;;;;;;;;4988746;28;20112;-80
2022/01/20 15:06:32;;;;;;;6.25;5.30;;;;;;;;;;4988524;28;20030;-80
2022/01/20 15:09:18;;;;;;;6.18;5.38;;;;;;;;;;4992645;28;20030;-80
2022/01/20 15:11:44;;;;;;;8.85;5.63;;;;;;;;;;4989635;28;20034;-84
2022/01/20 15:14:10;;;;;;;6.43;5.30;;;;;;;;;;4986850;28;20034;-78
2022/01/20 15:16:36;;;;;;;7.90;5.72;;;;;;;;;;4988166;28;20390;-77
2022/01/20 15:19:05;;;;;;;6.13;5.50;;;;;;;;;;4987412;28;20643;-85
2022/01/20 15:21:31;;;;;;;9.18;5.30;;;;;;;;;;4985861;28;20038;-80
2022/01/20 15:23:57;;;;;;;7.93;5.40;;;;;;;;;;4987578;28;20022;-80
2022/01/20 15:26:24;;;;;;;5.57;5.05;;;;;;;;;;4996637;28;20484;-76
2022/01/20 15:28:57;;;;;;;7.25;5.43;;;;;;;;;;4989714;28;20030;-76
2022/01/20 15:31:24;;;;;;;6.55;5.80;;;;;;;;;;4995163;28;20515;-76
2022/01/20 15:33:50;;;;;;;8.68;5.90;;;;;;;;;;4999552;28;20396;-76
2022/01/20 15:36:16;;;;;;;5.95;5.35;;;;;;;;;;4997370;28;20105;-76
2022/01/20 15:38:42;;;;;;;9.90;5.32;;;;;;;;;;4996600;28;20030;-75
2022/01/20 15:41:09;;;;;;;6.47;5.75;;;;;;;;;;4996908;28;20026;-76
2022/01/20 15:43:35;;;;;;;6.70;5.15;;;;;;;;;;5004223;28;20025;-77
2022/01/20 15:46:03;;;;;;;9.27;5.70;;;;;;;;;;5004716;28;20025;-75
2022/01/20 15:48:29;;;;;;;8.65;5.95;;;;;;;;;;4986585;28;20037;-77
2022/01/20 15:50:55;;;;;;;11.57;6.28;;;;;;;;;;5002172;28;20060;-77
2022/01/20 15:53:22;;;;;;;7.43;5.55;;;;;;;;;;4985259;28;20402;-76
2022/01/20 15:55:48;;;;;;;10.63;6.50;;;;;;;;;;5003617;28;20049;-76
2022/01/20 15:58:15;;;;;;;7.22;5.90;;;;;;;;;;5002020;28;20064;-78
2022/01/20 16:00:42;;;;;;;6.30;5.50;;;;;;;;;;4983923;28;20121;-77
2022/01/20 16:03:08;;;;;;;7.22;6.18;;;;;;;;;;4985545;28;20017;-76